createdAt,value
2019-01-26T00:01:23.810Z,202.55
2019-01-26T00:04:47.916Z,199.53
2019-01-26T00:11:18.909Z,130.75
2019-01-26T00:14:36.955Z,129.90
2019-01-26T00:17:06.935Z,122.75
2019-01-26T00:23:37.155Z,70.80
2019-01-26T00:30:10.520Z,14.07
2019-01-26T00:36:40.403Z,12.55
2019-01-26T00:40:05.225Z,12.98
2019-01-26T00:46:35.425Z,11.30
2019-01-26T00:50:00.049Z,13.13
2019-01-26T00:56:30.197Z,11.78
2019-01-26T00:59:54.675Z,11.35
2019-01-26T01:06:26.038Z,11.48
2019-01-26T01:12:57.299Z,9.18
2019-01-26T01:19:28.219Z,9.33
2019-01-26T01:25:58.782Z,11.12
2019-01-26T01:32:29.344Z,7.97
2019-01-26T01:35:53.511Z,10.98
2019-01-26T01:42:24.359Z,8.78
2019-01-26T01:45:48.639Z,12.03
2019-01-26T01:52:19.382Z,9.17
2019-01-26T01:55:43.420Z,7.83
2019-01-26T02:02:14.001Z,9.00
2019-01-26T02:08:44.520Z,7.83
2019-01-26T02:12:09.318Z,7.65
2019-01-26T02:18:39.498Z,9.43
2019-01-26T02:21:09.389Z,8.00
2019-01-26T02:27:40.095Z,7.97
2019-01-26T02:34:11.047Z,656.25
2019-01-26T02:40:42.097Z,768.63
2019-01-26T02:47:12.798Z,767.90
2019-01-26T02:53:43.932Z,20.17
2019-01-26T03:00:20.294Z,11.33
2019-01-26T03:03:44.866Z,8.70
2019-01-26T03:10:18.141Z,9.15
2019-01-26T03:16:48.228Z,10.45
2019-01-26T03:23:19.082Z,9.48
2019-01-26T03:29:49.557Z,11.57
2019-01-26T03:36:20.154Z,11.97
2019-01-26T03:42:50.460Z,5.90
2019-01-26T03:46:15.218Z,7.37
2019-01-26T03:52:45.852Z,6.13
2019-01-26T03:56:10.062Z,5.67
2019-01-26T04:02:40.315Z,18.77
2019-01-26T04:05:48.957Z,15.25
2019-01-26T04:12:19.774Z,89.40
2019-01-26T04:18:50.333Z,25.82
2019-01-26T04:25:20.887Z,19.75
2019-01-26T04:31:51.483Z,17.32
2019-01-26T04:35:15.631Z,8.55
2019-01-26T04:41:46.764Z,4.55
2019-01-26T04:45:11.160Z,7.67
2019-01-26T04:51:41.764Z,6.85
2019-01-26T04:58:12.398Z,5.13
2019-01-26T05:01:36.852Z,5.33
2019-01-26T05:08:07.284Z,199.68
2019-01-26T05:11:31.668Z,13.10
2019-01-26T05:18:02.758Z,8.88
2019-01-26T05:21:27.070Z,8.25
2019-01-26T05:27:57.412Z,8.00
2019-01-26T05:34:28.310Z,8.60
2019-01-26T05:40:58.997Z,9.23
2019-01-26T05:47:29.571Z,8.60
2019-01-26T05:54:00.232Z,7.75
2019-01-26T05:57:24.238Z,9.37
2019-01-26T06:03:55.170Z,8.23
2019-01-26T06:10:25.669Z,12.98
2019-01-26T06:13:49.802Z,15.48
2019-01-26T06:20:20.744Z,15.65
2019-01-26T06:23:44.977Z,18.07
2019-01-26T06:30:20.974Z,59.73
2019-01-26T06:36:51.720Z,112.37
2019-01-26T06:40:15.958Z,140.73
2019-01-26T06:46:47.162Z,185.10
2019-01-26T06:53:17.752Z,204.82
2019-01-26T06:59:48.638Z,226.57
2019-01-26T07:06:21.008Z,277.15
2019-01-26T07:12:51.346Z,201.27
2019-01-26T07:19:21.856Z,181.28
2019-01-26T07:22:45.865Z,177.60
2019-01-26T07:29:16.040Z,321.10
2019-01-26T07:31:45.874Z,257.67
2019-01-26T07:38:16.947Z,220.25
2019-01-26T07:44:47.583Z,171.45
2019-01-26T07:48:16.727Z,81.67
2019-01-26T07:54:44.464Z,36.35
2019-01-26T08:01:15.877Z,12.88
2019-01-26T08:04:40.137Z,14.03
2019-01-26T08:11:11.219Z,13.08
2019-01-26T08:14:35.189Z,18.30
2019-01-26T08:21:05.838Z,16.30
2019-01-26T08:24:30.142Z,14.03
2019-01-26T08:31:00.700Z,14.13
2019-01-26T08:37:31.913Z,13.32
2019-01-26T08:44:02.478Z,9.90
2019-01-26T08:50:33.549Z,13.18
2019-01-26T08:57:04.566Z,10.72
2019-01-26T09:03:36.491Z,10.80
2019-01-26T09:10:07.995Z,10.03
2019-01-26T09:16:38.947Z,12.13
2019-01-26T09:20:03.362Z,12.95
2019-01-26T09:26:33.364Z,9.63
2019-01-26T09:29:57.861Z,10.05
2019-01-26T09:32:27.829Z,11.60
2019-01-26T09:38:58.796Z,10.23
2019-01-26T09:45:29.596Z,10.73
2019-01-26T09:52:00.687Z,12.05
2019-01-26T09:55:24.945Z,11.97
2019-01-26T10:01:56.147Z,14.65
2019-01-26T10:05:20.720Z,14.05
2019-01-26T10:11:51.012Z,15.93
2019-01-26T10:18:21.548Z,15.95
2019-01-26T10:24:51.915Z,14.47
2019-01-26T10:31:22.395Z,13.65
2019-01-26T10:33:52.220Z,16.20
2019-01-26T10:40:27.676Z,17.73
2019-01-26T10:46:58.303Z,16.82
2019-01-26T10:50:22.713Z,20.50
2019-01-26T10:56:53.522Z,14.80
2019-01-26T11:03:24.384Z,15.08
2019-01-26T11:06:48.598Z,16.27
2019-01-26T11:13:19.611Z,14.58
2019-01-26T11:16:44.038Z,18.87
2019-01-26T11:23:14.597Z,21.93
2019-01-26T11:26:39.035Z,21.68
2019-01-26T11:33:09.529Z,20.88
2019-01-26T11:48:09.623Z,19.75
2019-01-26T11:54:42.540Z,19.37
2019-01-26T12:01:16.855Z,19.73
2019-01-26T12:07:48.102Z,16.30
2019-01-26T12:14:19.224Z,20.10
2019-01-26T12:17:43.846Z,15.32
2019-01-26T12:24:14.661Z,62.30
2019-01-26T12:27:39.655Z,69.50
2019-01-26T12:34:13.550Z,345.97
2019-01-26T12:40:44.857Z,452.80
2019-01-26T12:44:09.380Z,454.02
2019-01-26T12:50:41.470Z,470.80
2019-01-26T12:54:05.830Z,458.32
2019-01-26T13:00:36.369Z,425.02
2019-01-26T13:07:07.024Z,427.37
2019-01-26T13:10:31.560Z,439.07
2019-01-26T13:17:02.420Z,404.60
2019-01-26T13:20:27.213Z,379.25
2019-01-26T13:26:57.743Z,373.97
2019-01-26T13:33:28.666Z,333.87
2019-01-26T13:35:58.518Z,286.07
2019-01-26T13:42:29.279Z,242.47
2019-01-26T13:49:00.530Z,152.70
2019-01-26T13:55:31.621Z,171.95
2019-01-26T13:58:56.205Z,120.83
2019-01-26T14:05:26.628Z,91.40
2019-01-26T14:08:51.474Z,93.00
2019-01-26T14:15:23.306Z,85.87
2019-01-26T14:18:48.133Z,60.55
2019-01-26T14:25:19.941Z,27.80
2019-01-26T14:28:44.548Z,26.60
2019-01-26T14:35:15.601Z,30.88
2019-01-26T14:41:46.349Z,35.15
2019-01-26T14:48:16.914Z,53.80
2019-01-26T14:54:47.492Z,26.45
2019-01-26T15:01:18.186Z,24.80
2019-01-26T15:07:49.306Z,24.25
2019-01-26T15:11:14.111Z,21.30
2019-01-26T15:17:45.004Z,21.95
2019-01-26T15:24:15.650Z,18.55
2019-01-26T15:30:46.738Z,22.80
2019-01-26T15:34:11.148Z,20.52
2019-01-26T15:36:40.971Z,22.10
2019-01-26T15:43:12.328Z,21.15
2019-01-26T15:49:43.526Z,24.53
2019-01-26T15:56:13.945Z,17.92
2019-01-26T15:59:38.242Z,19.42
2019-01-26T16:06:09.245Z,18.98
2019-01-26T16:12:40.046Z,18.20
2019-01-26T16:19:11.343Z,23.30
2019-01-26T16:22:35.521Z,19.92
2019-01-26T16:29:06.705Z,21.23
2019-01-26T16:32:30.840Z,22.05
2019-01-26T16:39:01.408Z,23.52
2019-01-26T16:45:37.832Z,35.28
2019-01-26T16:52:13.968Z,24.47
2019-01-26T16:58:41.835Z,25.17
2019-01-26T17:05:12.917Z,24.27
2019-01-26T17:11:43.596Z,23.65
2019-01-26T17:18:14.571Z,27.80
2019-01-26T17:21:38.891Z,23.40
2019-01-26T17:28:11.123Z,41.53
2019-01-26T17:31:35.214Z,64.80
2019-01-26T17:38:06.416Z,40.98
2019-01-26T17:40:36.480Z,21.17
2019-01-26T17:47:07.498Z,23.25
2019-01-26T17:53:39.368Z,18.62
2019-01-26T17:57:03.868Z,11.78
2019-01-26T18:03:34.778Z,13.07
2019-01-26T18:10:08.016Z,9.55
2019-01-26T18:13:32.290Z,374.30
2019-01-26T18:20:02.993Z,468.50
2019-01-26T18:26:34.049Z,824.25
2019-01-26T18:29:58.633Z,794.15
2019-01-26T18:36:29.815Z,739.02
2019-01-26T18:43:00.543Z,665.23
2019-01-26T18:49:31.162Z,581.45
2019-01-26T18:56:02.183Z,495.27
2019-01-26T18:59:21.491Z,471.07
2019-01-26T19:05:53.490Z,389.52
2019-01-26T19:09:17.874Z,379.85
2019-01-26T19:15:48.244Z,309.00
2019-01-26T19:19:12.043Z,254.30
2019-01-26T19:25:42.488Z,127.90
2019-01-26T19:32:14.070Z,45.20
2019-01-26T19:35:38.430Z,31.73
2019-01-26T19:42:09.221Z,18.52
2019-01-26T19:44:39.234Z,19.32
2019-01-26T19:51:10.471Z,10.98
2019-01-26T19:54:34.454Z,13.20
2019-01-26T20:01:05.548Z,10.38
2019-01-26T20:07:36.280Z,8.80
2019-01-26T20:11:01.054Z,8.85
2019-01-26T20:17:31.547Z,7.95
2019-01-26T20:20:55.895Z,6.70
2019-01-26T20:27:26.888Z,7.62
2019-01-26T20:33:57.592Z,6.50
2019-01-26T20:37:21.949Z,8.25
2019-01-26T20:43:52.343Z,5.33
2019-01-26T20:50:23.437Z,521.17
2019-01-26T20:56:53.983Z,825.30
2019-01-26T21:03:24.691Z,850.33
2019-01-26T21:09:56.530Z,793.45
2019-01-26T21:13:21.427Z,769.35
2019-01-26T21:19:52.696Z,707.50
2019-01-26T21:26:22.910Z,567.35
2019-01-26T21:32:53.910Z,421.05
2019-01-26T21:39:24.902Z,378.77
2019-01-26T21:42:49.372Z,351.37
2019-01-26T21:45:19.360Z,277.27
2019-01-26T21:51:50.302Z,222.27
2019-01-26T21:58:20.643Z,132.20
2019-01-26T22:04:50.668Z,66.60
2019-01-26T22:08:15.005Z,42.05
2019-01-26T22:14:45.196Z,19.80
2019-01-26T22:21:16.075Z,15.32
2019-01-26T22:27:48.130Z,16.82
2019-01-26T22:34:18.489Z,14.98
2019-01-26T22:37:42.957Z,10.45
2019-01-26T22:44:13.071Z,13.35
2019-01-26T22:46:43.010Z,11.38
2019-01-26T22:53:13.963Z,13.32
2019-01-26T22:59:47.801Z,14.35
2019-01-26T23:06:24.563Z,12.63
2019-01-26T23:13:00.924Z,13.72
2019-01-26T23:19:37.529Z,9.98
2019-01-26T23:26:13.950Z,13.60
2019-01-26T23:29:38.096Z,12.07
2019-01-26T23:36:08.758Z,15.75
2019-01-26T23:39:32.733Z,10.88
2019-01-26T23:46:03.050Z,12.10
2019-01-26T23:52:33.549Z,10.55
2019-01-26T23:55:57.857Z,10.60
